Time;durP1;ratioP1;P1;durP2;ratioP2;P2;SDS_P1;SDS_P2;PMS_P1;PMS_P2;Temp;Humidity;BMP_temperature;BMP_pressure;BME280_temperature;BME280_humidity;BME280_pressure;Samples;Min_cycle;Max_cycle;Signal;HPM_P1;HPM_P2
2022/10/28 00:02:15;;;;;;;17.23;6.25;;;;;;;16.84;81.72;101659.47;6214436;23;20049;-84
2022/10/28 00:04:40;;;;;;;16.52;6.50;;;;;;;16.81;81.52;101660.34;6188821;23;20056;-84
2022/10/28 00:07:06;;;;;;;19.02;6.55;;;;;;;16.78;81.44;101657.69;6213557;23;19993;-84
2022/10/28 00:09:31;;;;;;;13.48;6.10;;;;;;;16.73;81.17;101657.69;6211920;23;20009;-84
2022/10/28 00:11:56;;;;;;;16.05;6.65;;;;;;;16.67;81.61;101667.47;6192365;23;20339;-83
2022/10/28 00:14:22;;;;;;;15.77;7.25;;;;;;;16.65;82.85;101655.91;6190245;23;20009;-83
2022/10/28 00:16:47;;;;;;;13.48;7.45;;;;;;;16.68;83.50;101658.56;6163089;23;20339;-83
2022/10/28 00:19:13;;;;;;;17.45;7.03;;;;;;;16.69;83.04;101655.88;6189215;23;20013;-83
2022/10/28 00:21:40;;;;;;;18.60;6.82;;;;;;;16.68;82.58;101661.25;6189253;23;20297;-83
2022/10/28 00:24:08;;;;;;;16.20;6.85;;;;;;;16.63;82.96;101660.38;6189067;23;20087;-84
2022/10/28 00:26:35;;;;;;;16.60;7.55;;;;;;;16.61;83.39;101659.47;6188678;23;20035;-83
2022/10/28 00:29:06;;;;;;;16.60;7.00;;;;;;;16.58;83.00;101647.03;6188689;23;20001;-83
2022/10/28 00:31:33;;;;;;;18.45;7.30;;;;;;;16.58;83.90;101648.81;6189281;23;20028;-83
2022/10/28 00:34:01;;;;;;;18.05;7.15;;;;;;;16.57;83.84;101645.22;6161981;23;20009;-83
2022/10/28 00:36:33;;;;;;;15.50;7.65;;;;;;;16.62;83.68;101654.16;6188605;23;20001;-83
2022/10/28 00:39:00;;;;;;;14.23;7.15;;;;;;;16.63;83.71;101636.34;6188943;23;20009;-83
2022/10/28 00:41:28;;;;;;;15.88;6.97;;;;;;;16.69;83.59;101655.00;6187985;23;20009;-83
2022/10/28 00:43:59;;;;;;;15.35;7.20;;;;;;;16.69;83.55;101649.66;6188375;23;20356;-83
2022/10/28 00:46:36;;;;;;;20.10;7.88;;;;;;;16.67;83.62;101649.69;6188375;23;20013;-83
2022/10/28 00:49:05;;;;;;;20.67;7.05;;;;;;;16.61;82.40;101639.00;6188226;23;20004;-83
2022/10/28 00:51:34;;;;;;;15.98;6.80;;;;;;;16.52;83.36;101647.91;6186758;23;20519;-83
2022/10/28 00:54:01;;;;;;;12.40;6.20;;;;;;;16.57;nan;101641.66;6187630;23;20075;-83
2022/10/28 00:56:34;;;;;;;19.08;7.57;;;;;;;16.58;84.13;101630.13;6187893;23;20435;-83
2022/10/28 00:59:03;;;;;;;16.13;7.53;;;;;;;16.58;84.07;101623.00;6161568;23;20005;-83
2022/10/28 01:01:28;;;;;;;18.52;7.53;;;;;;;16.49;83.10;101613.25;6187971;23;20072;-83
2022/10/28 01:03:55;;;;;;;15.82;7.68;;;;;;;16.57;84.00;101618.53;6187503;23;20009;-83
2022/10/28 01:06:21;;;;;;;18.05;7.43;;;;;;;16.58;83.88;101614.13;6161084;23;20009;-83
2022/10/28 01:08:47;;;;;;;14.75;7.57;;;;;;;16.56;83.86;101610.56;6188416;23;20043;-83
2022/10/28 01:11:47;;;;;;;15.52;7.45;;;;;;;16.57;84.17;101610.53;6161454;23;20048;-84
2022/10/28 01:14:30;;;;;;;13.02;7.35;;;;;;;16.57;83.89;101613.22;6187619;23;20015;-83
2022/10/28 01:17:07;;;;;;;19.60;7.70;;;;;;;16.48;84.50;101600.78;6188263;23;20008;-83
2022/10/28 01:20:10;;;;;;;20.10;7.78;;;;;;;16.51;84.26;101602.56;6187996;23;20005;-83
2022/10/28 01:22:54;;;;;;;18.08;7.63;;;;;;;16.52;84.19;101609.66;6187306;23;20001;-83
2022/10/28 01:25:28;;;;;;;17.35;7.00;;;;;;;16.47;83.75;101612.34;6187579;23;20005;-84
2022/10/28 01:28:27;;;;;;;15.07;6.70;;;;;;;16.50;83.59;101606.13;6187370;23;20001;-84
2022/10/28 01:30:59;;;;;;;18.45;7.38;;;;;;;16.44;84.30;101606.13;6187565;23;20072;-84
2022/10/28 01:33:44;;;;;;;16.83;6.53;;;;;;;16.41;83.30;101614.16;6187167;23;20650;-84
2022/10/28 01:36:14;;;;;;;16.65;7.13;;;;;;;16.34;84.01;101604.38;6160705;23;20005;-84
2022/10/28 01:39:08;;;;;;;17.95;7.72;;;;;;;16.33;84.34;101608.81;6187048;23;20001;-84
2022/10/28 01:42:06;;;;;;;16.73;6.93;;;;;;;16.26;84.74;101597.25;6176258;23;20024;-83
2022/10/28 01:44:50;;;;;;;23.60;7.63;;;;;;;16.23;84.62;101599.94;6185588;23;20015;-83
2022/10/28 01:47:29;;;;;;;17.95;7.35;;;;;;;16.16;85.05;101592.81;6187519;23;20008;-84
2022/10/28 01:50:20;;;;;;;19.98;6.90;;;;;;;16.19;84.81;101595.50;6186975;23;20009;-83
2022/10/28 01:52:47;;;;;;;16.80;7.28;;;;;;;16.18;84.84;101592.81;6187573;23;20001;-83
2022/10/28 01:55:20;;;;;;;16.60;7.63;;;;;;;16.19;84.70;101590.16;6161212;23;20439;-83
2022/10/28 01:57:49;;;;;;;15.60;6.75;;;;;;;16.17;84.61;101594.59;6187289;23;20001;-84
2022/10/28 02:00:15;;;;;;;13.13;6.55;;;;;;;16.22;84.35;101598.13;6187796;23;20009;-86
2022/10/28 02:02:41;;;;;;;16.73;6.40;;;;;;;16.21;84.46;101583.03;6187046;23;20064;-83
2022/10/28 02:05:44;;;;;;;16.88;6.45;;;;;;;16.26;84.05;101596.34;6187115;23;20020;-84
2022/10/28 02:08:30;;;;;;;17.73;6.80;;;;;;;16.17;83.69;101593.69;6186588;23;20361;-83
2022/10/28 02:11:16;;;;;;;15.82;7.25;;;;;;;16.09;84.29;101588.38;6186906;23;20009;-84
2022/10/28 02:14:11;;;;;;;19.77;6.60;;;;;;;16.06;84.21;101592.81;6187002;23;20055;-83
2022/10/28 02:16:42;;;;;;;17.60;6.63;;;;;;;15.95;83.35;101588.38;6186564;23;20036;-84
2022/10/28 02:19:13;;;;;;;13.32;5.85;;;;;;;16.01;83.67;101587.47;6186744;23;20040;-84
2022/10/28 02:21:59;;;;;;;12.45;6.45;;;;;;;15.92;83.68;101580.34;6185983;23;20009;-83
2022/10/28 02:24:51;;;;;;;16.17;6.75;;;;;;;15.91;83.73;101593.69;6162814;23;20075;-84
2022/10/28 02:27:42;;;;;;;14.43;6.10;;;;;;;15.84;83.06;101586.56;6187575;23;20012;-85
2022/10/28 02:30:18;;;;;;;14.73;6.07;;;;;;;15.85;83.71;101597.25;6185670;23;20009;-83
2022/10/28 02:32:49;;;;;;;12.70;5.53;;;;;;;15.75;83.82;101585.66;6186902;23;20040;-83
2022/10/28 02:35:19;;;;;;;9.73;5.10;;;;;;;15.85;83.71;101588.38;6187411;23;20009;-83
2022/10/28 02:37:47;;;;;;;14.80;5.78;;;;;;;15.82;83.45;101572.38;6187008;23;20013;-83
2022/10/28 02:40:18;;;;;;;17.58;5.75;;;;;;;15.89;83.68;101580.38;6187118;23;20087;-83
2022/10/28 02:42:49;;;;;;;13.98;5.63;;;;;;;15.89;83.99;101576.84;6160900;23;20009;-83
2022/10/28 02:45:22;;;;;;;10.77;5.47;;;;;;;15.84;82.68;101581.25;6187148;23;20009;-83
2022/10/28 02:47:56;;;;;;;19.58;5.93;;;;;;;15.83;82.51;101577.69;6187475;23;20076;-83
2022/10/28 02:50:29;;;;;;;12.98;5.22;;;;;;;15.81;82.86;101576.81;6186726;23;20013;-84
2022/10/28 02:52:58;;;;;;;16.20;5.97;;;;;;;15.73;81.83;101584.78;6187409;23;20097;-84
2022/10/28 02:55:31;;;;;;;11.02;5.70;;;;;;;15.66;82.27;101587.44;6184994;23;20009;-84
2022/10/28 02:57:57;;;;;;;15.90;5.88;;;;;;;15.61;83.32;101586.53;6187512;23;20000;-84
2022/10/28 03:00:23;;;;;;;17.58;6.03;;;;;;;15.61;82.52;101584.75;6187312;23;20320;-85
2022/10/28 03:02:49;;;;;;;13.80;5.10;;;;;;;15.66;83.48;101576.78;6186118;23;20031;-84
2022/10/28 03:05:15;;;;;;;12.65;5.35;;;;;;;15.66;82.68;101575.00;6186208;23;20457;-83
2022/10/28 03:07:40;;;;;;;14.23;5.47;;;;;;;15.59;82.53;101578.53;6186052;23;20475;-83
2022/10/28 03:10:06;;;;;;;15.30;5.45;;;;;;;15.55;82.39;101571.41;6160754;23;20482;-83
2022/10/28 03:12:32;;;;;;;11.15;4.97;;;;;;;15.57;83.17;101574.06;6184831;23;20458;-83
2022/10/28 03:14:57;;;;;;;12.98;5.50;;;;;;;15.55;83.24;101574.09;6160135;23;20088;-83
2022/10/28 03:17:23;;;;;;;16.85;5.38;;;;;;;15.51;82.72;101575.84;6186467;23;20016;-84
2022/10/28 03:19:48;;;;;;;14.43;5.95;;;;;;;15.48;82.54;101567.84;6185976;23;20344;-83
2022/10/28 03:22:14;;;;;;;11.93;5.00;;;;;;;15.54;82.71;101569.63;6185468;23;20009;-83
2022/10/28 03:24:39;;;;;;;14.88;5.50;;;;;;;15.47;83.33;101559.84;6135232;23;20469;-83
2022/10/28 03:27:04;;;;;;;10.57;5.07;;;;;;;15.52;82.86;101580.28;6186008;23;20014;-82
2022/10/28 03:29:30;;;;;;;16.27;5.60;;;;;;;15.45;82.79;101569.59;6186479;23;20068;-83
2022/10/28 03:31:55;;;;;;;13.38;5.45;;;;;;;15.44;83.16;101570.50;6135840;23;20016;-83
2022/10/28 03:34:20;;;;;;;14.60;5.38;;;;;;;15.38;83.20;101576.72;6186579;23;20028;-83
2022/10/28 03:36:46;;;;;;;12.10;5.47;;;;;;;15.31;83.23;101566.91;6186267;23;20012;-83
2022/10/28 03:39:11;;;;;;;12.55;5.38;;;;;;;15.26;82.87;101566.91;6160410;23;20005;-83
2022/10/28 03:41:37;;;;;;;11.07;5.18;;;;;;;15.31;83.79;101571.34;6184048;23;20021;-83
2022/10/28 03:44:02;;;;;;;13.73;5.13;;;;;;;15.25;83.94;101575.78;6209561;23;20009;-83
2022/10/28 03:46:27;;;;;;;12.10;5.47;;;;;;;15.33;83.97;101580.22;6185874;23;20037;-83
2022/10/28 03:48:53;;;;;;;12.45;5.30;;;;;;;15.26;83.40;101566.91;6185035;23;20029;-83
2022/10/28 03:51:18;;;;;;;15.15;5.00;;;;;;;15.22;83.37;101570.44;6186245;23;20443;-82
2022/10/28 03:53:43;;;;;;;16.52;5.65;;;;;;;15.27;84.26;101560.69;6185786;23;20088;-83
2022/10/28 03:56:10;;;;;;;10.73;5.15;;;;;;;15.23;83.30;101563.34;6186179;23;20005;-83
2022/10/28 03:58:35;;;;;;;10.95;5.05;;;;;;;15.19;84.16;101561.53;6210048;23;20013;-83
2022/10/28 04:01:01;;;;;;;15.20;5.60;;;;;;;15.20;83.93;101560.66;6209660;23;20101;-83
2022/10/28 04:03:26;;;;;;;15.50;5.05;;;;;;;15.16;84.26;101564.19;6186097;23;20013;-85
2022/10/28 04:05:52;;;;;;;13.80;4.90;;;;;;;15.08;84.57;101556.19;6184643;23;20005;-83
2022/10/28 04:08:18;;;;;;;11.27;5.05;;;;;;;15.11;85.10;101557.97;6159806;23;20065;-83
2022/10/28 04:10:44;;;;;;;11.68;5.05;;;;;;;15.13;84.78;101561.53;6186841;23;20016;-83
2022/10/28 04:13:10;;;;;;;14.90;5.35;;;;;;;15.17;84.59;101569.53;6185886;23;20440;-83
2022/10/28 04:15:35;;;;;;;15.35;5.18;;;;;;;15.20;84.55;101560.66;6186770;23;20080;-83
2022/10/28 04:18:01;;;;;;;14.23;5.50;;;;;;;15.22;84.63;101564.22;6185876;23;20067;-83
2022/10/28 04:20:27;;;;;;;12.13;4.93;;;;;;;15.26;84.71;101561.56;6185756;23;20009;-83
2022/10/28 04:22:53;;;;;;;14.68;5.07;;;;;;;15.29;84.18;101571.34;6185961;23;20016;-83
2022/10/28 04:25:23;;;;;;;12.20;5.15;;;;;;;15.27;84.00;101566.00;6185626;23;20076;-83
2022/10/28 04:27:48;;;;;;;16.50;4.85;;;;;;;15.27;84.08;101562.47;6186117;23;20009;-83
2022/10/28 04:30:14;;;;;;;13.30;5.35;;;;;;;15.33;84.54;101575.81;6186051;23;20039;-83
2022/10/28 04:32:41;;;;;;;16.27;4.68;;;;;;;15.32;83.29;101582.00;6185723;23;20008;-83
2022/10/28 04:35:08;;;;;;;10.80;4.43;;;;;;;15.34;83.94;101574.03;6185989;23;20028;-83
2022/10/28 04:37:34;;;;;;;18.13;5.30;;;;;;;15.27;84.04;101568.66;6186690;23;20001;-84
2022/10/28 04:39:59;;;;;;;13.27;4.72;;;;;;;15.28;84.21;101575.75;6184160;23;20023;-83
2022/10/28 04:42:25;;;;;;;14.73;5.00;;;;;;;15.25;84.24;101565.13;6187827;23;20013;-83
2022/10/28 04:44:50;;;;;;;15.68;5.10;;;;;;;15.36;83.95;101575.78;6187798;23;20009;-83
2022/10/28 04:47:16;;;;;;;12.45;4.95;;;;;;;15.38;83.82;101571.38;6186110;23;20431;-83
2022/10/28 04:49:42;;;;;;;13.10;4.80;;;;;;;15.40;83.62;101571.38;6187318;23;20009;-83
2022/10/28 04:52:07;;;;;;;9.10;4.47;;;;;;;15.42;83.53;101578.50;6186913;23;20005;-84
2022/10/28 04:54:32;;;;;;;11.15;4.65;;;;;;;15.46;83.33;101574.03;6187621;23;20009;-84
2022/10/28 04:56:58;;;;;;;10.18;4.75;;;;;;;15.34;82.38;101566.03;6186734;23;20424;-83
2022/10/28 04:59:23;;;;;;;13.35;4.63;;;;;;;15.40;83.36;101574.03;6187905;23;20440;-83
2022/10/28 05:01:49;;;;;;;13.52;4.80;;;;;;;15.38;83.65;101565.16;6187313;23;20009;-83
2022/10/28 05:04:14;;;;;;;12.85;4.60;;;;;;;15.42;83.14;101566.97;6187182;23;20009;-83
2022/10/28 05:06:39;;;;;;;14.45;4.55;;;;;;;15.36;83.26;101558.94;6186170;23;20039;-83
2022/10/28 05:09:05;;;;;;;16.25;5.15;;;;;;;15.39;82.96;101567.81;6186526;23;20031;-84
2022/10/28 05:11:30;;;;;;;13.50;5.10;;;;;;;15.37;83.25;101558.94;6187530;23;20005;-83
2022/10/28 05:13:56;;;;;;;18.13;5.03;;;;;;;15.39;83.23;101564.28;6187501;23;20013;-83
2022/10/28 05:16:21;;;;;;;8.70;4.35;;;;;;;15.41;82.63;101565.16;6187514;23;20009;-83
2022/10/28 05:18:47;;;;;;;15.45;5.40;;;;;;;15.35;83.08;101573.13;6187839;23;20324;-83
2022/10/28 05:21:12;;;;;;;14.35;4.80;;;;;;;15.34;83.25;101568.72;6211247;23;20017;-83
2022/10/28 05:23:38;;;;;;;12.80;4.85;;;;;;;15.31;83.07;101574.00;6187630;23;20009;-83
2022/10/28 05:26:03;;;;;;;17.50;5.13;;;;;;;15.28;83.35;101565.13;6210901;23;20450;-83
2022/10/28 05:28:29;;;;;;;15.93;5.07;;;;;;;15.22;83.47;101564.22;6187441;23;20013;-83
2022/10/28 05:30:54;;;;;;;18.83;4.97;;;;;;;15.14;83.49;101558.88;6187062;23;20526;-83
2022/10/28 05:33:19;;;;;;;11.70;4.43;;;;;;;15.17;83.72;101558.00;6185477;23;20013;-84
2022/10/28 05:35:45;;;;;;;16.17;5.20;;;;;;;15.14;84.03;101550.00;6186937;23;20020;-84
2022/10/28 05:38:11;;;;;;;14.00;4.78;;;;;;;15.10;84.31;101543.78;6210810;23;20009;-84
2022/10/28 05:40:36;;;;;;;14.10;5.00;;;;;;;15.02;84.13;101550.84;6187161;23;20019;-85
2022/10/28 05:43:02;;;;;;;10.38;4.70;;;;;;;15.05;84.36;101549.97;6160591;23;20009;-84
2022/10/28 05:45:27;;;;;;;14.27;5.35;;;;;;;15.02;84.52;101558.81;6160848;23;20087;-84
2022/10/28 05:47:53;;;;;;;13.68;4.97;;;;;;;14.99;83.67;101551.72;6161089;23;20009;-84
2022/10/28 05:50:19;;;;;;;12.23;4.88;;;;;;;15.05;84.18;101556.19;6136612;23;20013;-84
2022/10/28 05:52:54;;;;;;;17.35;5.50;;;;;;;15.07;84.61;101566.81;6161293;23;20065;-84
2022/10/28 05:55:22;;;;;;;13.23;5.18;;;;;;;15.04;84.74;101565.06;6186838;23;20036;-84
2022/10/28 05:57:49;;;;;;;16.45;5.13;;;;;;;15.06;84.61;101560.63;6161779;23;20017;-83
2022/10/28 06:00:16;;;;;;;8.88;4.40;;;;;;;15.12;84.23;101554.44;6160591;23;20436;-83
2022/10/28 06:02:42;;;;;;;10.38;4.85;;;;;;;15.12;84.48;101557.09;6186936;23;20008;-84
2022/10/28 06:05:08;;;;;;;14.65;4.97;;;;;;;15.06;84.73;101544.66;6160707;23;20006;-83
2022/10/28 06:07:34;;;;;;;14.73;5.15;;;;;;;15.06;84.61;101557.94;6187060;23;20032;-83
2022/10/28 06:10:00;;;;;;;15.52;4.85;;;;;;;15.08;84.38;101564.19;6186106;23;20424;-83
2022/10/28 06:12:26;;;;;;;12.48;4.75;;;;;;;15.07;84.41;101562.38;6188389;23;20085;-83
2022/10/28 06:14:51;;;;;;;15.70;5.35;;;;;;;15.11;84.72;101561.50;6187455;23;20435;-83
2022/10/28 06:17:17;;;;;;;15.10;5.75;;;;;;;15.06;84.34;101560.63;6160974;23;20080;-83
2022/10/28 06:19:42;;;;;;;18.25;5.65;;;;;;;15.07;84.29;101569.47;6161777;23;20425;-83
2022/10/28 06:22:07;;;;;;;20.60;5.65;;;;;;;14.98;84.83;101576.53;6186761;23;20016;-83
2022/10/28 06:24:33;;;;;;;21.25;5.60;;;;;;;14.95;85.07;101567.69;6185387;23;20084;-84
2022/10/28 06:26:58;;;;;;;13.52;5.20;;;;;;;14.95;84.42;101565.91;6187094;23;20456;-83
2022/10/28 06:29:24;;;;;;;14.98;5.32;;;;;;;14.98;84.75;101568.56;6160589;23;20019;-83
2022/10/28 06:31:49;;;;;;;14.13;5.32;;;;;;;14.98;84.96;101576.53;6187208;23;20020;-84
2022/10/28 06:34:14;;;;;;;13.20;5.13;;;;;;;14.96;85.17;101573.00;6186815;23;20084;-85
2022/10/28 06:36:40;;;;;;;13.00;5.35;;;;;;;14.96;84.52;101573.00;6186723;23;20008;-85
2022/10/28 06:39:06;;;;;;;15.05;5.43;;;;;;;14.97;84.75;101574.78;6160467;23;20332;-85
2022/10/28 06:41:31;;;;;;;12.93;5.03;;;;;;;14.97;85.60;101573.88;6186793;23;20021;-84
2022/10/28 06:43:56;;;;;;;15.50;5.65;;;;;;;14.98;85.09;101565.00;6186199;23;20135;-85
2022/10/28 06:46:22;;;;;;;19.02;5.93;;;;;;;14.97;85.17;101560.59;6185012;23;20009;-83
2022/10/28 06:48:47;;;;;;;10.50;5.15;;;;;;;15.00;85.16;101564.16;6185423;23;20407;-83
2022/10/28 06:51:15;;;;;;;12.95;4.68;;;;;;;15.03;84.51;101564.16;6160261;23;20008;-82
2022/10/28 06:53:41;;;;;;;15.73;5.13;;;;;;;15.04;84.82;101559.72;6186609;23;20092;-82
2022/10/28 06:56:07;;;;;;;14.82;5.70;;;;;;;15.07;85.19;101556.16;6186899;23;20043;-83
2022/10/28 06:58:33;;;;;;;12.43;5.40;;;;;;;15.01;84.81;101552.63;6160324;23;20416;-86
2022/10/28 07:01:03;;;;;;;13.45;5.00;;;;;;;15.16;84.37;101566.84;6186177;23;20005;-83
2022/10/28 07:03:28;;;;;;;18.77;6.20;;;;;;;15.15;84.58;101567.75;6184783;23;20005;-84
2022/10/28 07:05:53;;;;;;;16.63;5.53;;;;;;;15.17;85.00;101572.19;6186483;23;20473;-83
2022/10/28 07:08:19;;;;;;;15.60;5.68;;;;;;;15.12;84.78;101565.97;6159945;23;20388;-84
2022/10/28 07:10:56;;;;;;;16.38;5.70;;;;;;;15.16;85.20;101566.84;6159898;23;20439;-84
2022/10/28 07:13:25;;;;;;;12.48;4.82;;;;;;;15.23;84.58;101574.88;6186747;23;20009;-83
2022/10/28 07:15:52;;;;;;;18.95;5.57;;;;;;;15.24;85.09;101576.63;6186498;23;20001;-83
2022/10/28 07:18:17;;;;;;;14.13;5.53;;;;;;;15.26;84.88;101572.22;6185308;23;20008;-84
2022/10/28 07:20:42;;;;;;;23.90;6.05;;;;;;;15.28;85.27;101565.13;6186410;23;20005;-83
2022/10/28 07:23:08;;;;;;;20.52;5.45;;;;;;;15.33;85.23;101570.47;6184758;23;20397;-83
2022/10/28 07:25:33;;;;;;;14.27;5.93;;;;;;;15.40;85.22;101579.38;6186399;23;20013;-83
2022/10/28 07:27:59;;;;;;;21.27;5.80;;;;;;;15.42;85.15;101575.84;6160110;23;20443;-83
2022/10/28 07:30:26;;;;;;;17.52;5.60;;;;;;;15.47;85.42;101589.16;6185880;23;20165;-83
2022/10/28 07:32:52;;;;;;;20.13;6.00;;;;;;;15.51;85.83;101585.63;6186281;23;20012;-83
2022/10/28 07:35:18;;;;;;;17.15;6.05;;;;;;;15.59;85.96;101588.28;6160417;23;20013;-83
2022/10/28 07:37:43;;;;;;;16.00;5.93;;;;;;;15.71;85.33;101599.88;6186230;23;20340;-83
2022/10/28 07:40:09;;;;;;;17.75;5.63;;;;;;;15.77;85.74;101593.69;6160015;23;20021;-83
2022/10/28 07:42:34;;;;;;;22.52;6.30;;;;;;;15.85;85.00;101589.25;6160644;23;20009;-83
2022/10/28 07:45:00;;;;;;;18.15;5.93;;;;;;;15.92;84.83;101598.13;6185744;23;20328;-83
2022/10/28 07:47:25;;;;;;;15.18;5.97;;;;;;;16.03;85.24;101591.03;6209743;23;20024;-83
2022/10/28 07:49:53;;;;;;;17.73;6.30;;;;;;;16.24;84.07;101590.16;6184435;23;20080;-83
2022/10/28 07:52:18;;;;;;;21.13;5.90;;;;;;;16.35;83.80;101577.66;6210707;23;20013;-85
2022/10/28 07:54:44;;;;;;;18.42;6.15;;;;;;;16.52;83.21;101580.31;6186247;23;20317;-83
2022/10/28 07:57:09;;;;;;;13.88;5.95;;;;;;;16.68;82.94;101574.06;6184708;23;20009;-83
2022/10/28 07:59:35;;;;;;;17.90;5.93;;;;;;;16.87;82.43;101568.69;6186198;23;20016;-83
2022/10/28 08:02:00;;;;;;;20.48;6.20;;;;;;;17.05;81.63;101568.63;6209665;23;20009;-83
2022/10/28 08:04:28;;;;;;;16.40;6.68;;;;;;;17.20;80.89;101573.88;6186174;23;20488;-83
2022/10/28 08:06:54;;;;;;;17.42;6.30;;;;;;;17.47;79.93;101574.63;6186509;23;20001;-83
2022/10/28 08:09:19;;;;;;;15.63;5.95;;;;;;;17.82;79.41;101579.78;6184247;23;20013;-83
2022/10/28 08:11:44;;;;;;;16.98;5.80;;;;;;;18.11;77.02;101574.19;6186139;23;20016;-83
2022/10/28 08:14:10;;;;;;;15.90;5.95;;;;;;;18.38;76.54;101574.84;6186423;23;20031;-83
2022/10/28 08:16:35;;;;;;;19.05;6.15;;;;;;;18.69;75.39;101583.44;6187516;23;20088;-83
2022/10/28 08:19:00;;;;;;;14.95;5.57;;;;;;;18.84;74.61;101585.97;6188414;23;20005;-83
2022/10/28 08:21:26;;;;;;;17.88;5.95;;;;;;;18.94;73.55;101592.13;6187965;23;20012;-83
2022/10/28 08:23:53;;;;;;;17.63;5.57;;;;;;;18.96;73.25;101601.00;6211067;23;20013;-83
2022/10/28 08:26:18;;;;;;;19.92;5.50;;;;;;;19.00;73.05;101600.06;6187663;23;20435;-83
2022/10/28 08:28:44;;;;;;;16.17;5.53;;;;;;;18.99;73.17;101598.31;6186561;23;20096;-83
2022/10/28 08:31:11;;;;;;;16.75;5.78;;;;;;;19.00;73.06;101594.72;6211464;23;20451;-83
2022/10/28 08:33:39;;;;;;;19.88;5.88;;;;;;;18.97;72.73;101589.38;6187847;23;20032;-83
2022/10/28 08:36:09;;;;;;;17.33;5.60;;;;;;;18.96;73.66;101596.53;6186125;23;20431;-83
2022/10/28 08:38:34;;;;;;;16.85;5.53;;;;;;;18.89;72.81;101593.97;6186298;23;20009;-83
2022/10/28 08:41:14;;;;;;;15.90;5.32;;;;;;;18.86;73.95;101594.88;6210957;23;20048;-84
2022/10/28 08:44:19;;;;;;;17.60;5.53;;;;;;;18.98;73.94;101601.91;6188221;23;20005;-83
2022/10/28 08:47:04;;;;;;;15.48;6.00;;;;;;;19.11;73.51;101598.16;6188203;23;20008;-84
2022/10/28 08:49:33;;;;;;;21.88;5.85;;;;;;;19.24;73.77;101593.53;6186239;23;20029;-83
2022/10/28 08:52:02;;;;;;;15.00;5.50;;;;;;;19.46;72.71;101592.31;6186178;23;20013;-83
2022/10/28 08:55:03;;;;;;;19.65;5.35;;;;;;;19.73;72.93;101577.66;6211318;23;20029;-83
2022/10/28 08:57:37;;;;;;;19.65;5.78;;;;;;;19.99;71.57;101579.03;6135586;23;20486;-84
2022/10/28 09:00:06;;;;;;;24.60;6.30;;;;;;;20.11;70.83;101576.16;6188125;23;20012;-83
2022/10/28 09:02:50;;;;;;;18.88;5.45;;;;;;;20.28;71.28;101578.53;6186258;23;20005;-83
2022/10/28 09:05:24;;;;;;;23.60;5.88;;;;;;;20.49;69.80;101598.78;6188249;23;20059;-83
2022/10/28 09:07:50;;;;;;;16.98;5.28;;;;;;;20.63;69.52;101593.16;6187708;23;20009;-83
2022/10/28 09:10:19;;;;;;;12.52;5.30;;;;;;;20.77;69.30;101609.91;6185749;23;20033;-83
2022/10/28 09:13:11;;;;;;;19.27;5.25;;;;;;;20.90;69.40;101603.38;6187158;23;20060;-83
2022/10/28 09:15:51;;;;;;;15.73;5.47;;;;;;;20.91;68.00;101596.19;6187344;23;20028;-83
2022/10/28 09:18:33;;;;;;;18.25;5.60;;;;;;;20.93;68.30;101603.28;6187625;23;20084;-83
2022/10/28 09:21:04;;;;;;;15.90;4.90;;;;;;;20.87;68.16;101608.81;6211371;23;20013;-84
2022/10/28 09:23:32;;;;;;;21.65;5.22;;;;;;;20.95;68.24;101603.28;6187903;23;20056;-84
2022/10/28 09:26:16;;;;;;;20.38;5.28;;;;;;;21.13;68.27;101600.22;6210844;23;20095;-84
2022/10/28 09:28:55;;;;;;;18.60;5.05;;;;;;;21.40;67.61;101598.75;6187032;23;20080;-83
2022/10/28 09:31:27;;;;;;;17.20;4.75;;;;;;;21.64;66.51;101596.44;6186862;23;20281;-84
2022/10/28 09:34:08;;;;;;;16.77;4.90;;;;;;;21.82;64.53;101597.81;6211184;23;20013;-83
2022/10/28 09:36:41;;;;;;;21.02;5.57;;;;;;;21.90;65.49;101594.00;6187440;23;20008;-83
2022/10/28 09:39:15;;;;;;;17.15;5.03;;;;;;;21.82;64.22;101608.56;6187647;23;20005;-84
2022/10/28 09:41:43;;;;;;;18.50;4.95;;;;;;;21.66;65.03;101608.03;6186962;23;20091;-83
2022/10/28 09:44:27;;;;;;;17.95;4.80;;;;;;;21.58;65.23;101610.03;6187504;23;20009;-83
2022/10/28 09:46:56;;;;;;;15.98;4.43;;;;;;;21.49;65.80;101616.50;6186604;23;20304;-83
2022/10/28 09:49:29;;;;;;;15.38;4.63;;;;;;;21.54;65.23;101602.94;6187890;23;20032;-83
2022/10/28 09:52:08;;;;;;;18.92;5.28;;;;;;;21.75;65.28;101602.44;6187136;23;20009;-83
2022/10/28 09:54:38;;;;;;;16.95;4.65;;;;;;;21.85;63.00;101606.69;6187504;23;20060;-83
2022/10/28 09:57:04;;;;;;;13.93;4.68;;;;;;;21.92;62.49;101612.81;6187794;23;20005;-84
2022/10/28 09:59:30;;;;;;;15.98;4.55;;;;;;;22.04;62.03;101614.31;6185509;23;20020;-83
2022/10/28 10:01:55;;;;;;;21.48;5.20;;;;;;;22.34;61.81;101597.41;6185848;23;20013;-83
2022/10/28 10:04:23;;;;;;;20.30;4.82;;;;;;;22.51;61.38;101610.44;6187226;23;20412;-83
2022/10/28 10:06:53;;;;;;;16.73;4.72;;;;;;;22.66;60.08;101618.13;6185414;23;20043;-83
2022/10/28 10:09:28;;;;;;;19.00;5.38;;;;;;;22.88;60.34;101621.13;6187325;23;20001;-83
2022/10/28 10:11:58;;;;;;;17.55;4.95;;;;;;;23.13;58.77;101605.16;6187265;23;20079;-83
2022/10/28 10:14:29;;;;;;;20.50;4.57;;;;;;;23.19;58.36;101596.88;6187372;23;20011;-83
2022/10/28 10:17:00;;;;;;;19.00;4.60;;;;;;;23.14;57.95;101608.72;6186978;23;20055;-83
2022/10/28 10:19:26;;;;;;;18.33;5.60;;;;;;;23.13;57.54;101626.72;6186907;23;20009;-83
2022/10/28 10:21:53;;;;;;;22.92;4.85;;;;;;;23.16;57.32;101617.66;6185301;23;20316;-83
2022/10/28 10:24:21;;;;;;;19.88;4.88;;;;;;;23.04;58.72;101618.00;6160594;23;20032;-83
2022/10/28 10:26:47;;;;;;;16.25;4.53;;;;;;;23.10;57.73;101598.97;6186706;23;20005;-83
2022/10/28 10:29:13;;;;;;;15.40;4.65;;;;;;;23.18;57.81;101597.81;6160090;23;20009;-83
2022/10/28 10:31:38;;;;;;;20.10;5.10;;;;;;;23.30;58.74;101607.34;6160872;23;20033;-84
2022/10/28 10:34:04;;;;;;;17.17;4.70;;;;;;;23.30;56.96;101598.34;6186680;23;20036;-83
2022/10/28 10:36:30;;;;;;;17.63;4.70;;;;;;;23.35;56.29;101596.44;6186373;23;20021;-83
2022/10/28 10:39:01;;;;;;;14.13;4.40;;;;;;;23.31;56.60;101605.53;6187186;23;20020;-84
2022/10/28 10:41:36;;;;;;;17.33;5.35;;;;;;;23.30;56.33;101595.66;6187232;23;20021;-83
2022/10/28 10:44:20;;;;;;;18.80;4.55;;;;;;;23.39;56.54;101593.59;6185998;23;20009;-83
2022/10/28 10:47:01;;;;;;;15.80;4.63;;;;;;;23.43;56.92;101592.56;6186222;23;20012;-84
2022/10/28 10:49:28;;;;;;;13.90;4.15;;;;;;;23.45;55.30;101585.28;6185654;23;20016;-84
2022/10/28 10:52:00;;;;;;;16.80;4.82;;;;;;;23.57;55.55;101573.25;6185017;23;20091;-84
2022/10/28 10:54:26;;;;;;;;;;;;;;;23.72;56.35;101567.41;6187787;23;20028;-83
2022/10/28 10:56:52;;;;;;;19.65;4.65;;;;;;;23.80;53.64;101577.91;6186180;23;19911;-83
2022/10/28 10:59:23;;;;;;;20.73;4.78;;;;;;;23.87;54.51;101575.91;6135315;23;20012;-83
2022/10/28 11:01:49;;;;;;;16.80;4.10;;;;;;;23.90;53.32;101565.03;6187287;23;20044;-84
2022/10/28 11:04:17;;;;;;;20.27;4.18;;;;;;;23.98;52.62;101574.63;6186347;23;20252;-83
2022/10/28 11:06:48;;;;;;;17.33;4.35;;;;;;;24.06;52.44;101577.06;6186138;23;20060;-83
2022/10/28 11:09:32;;;;;;;22.23;4.90;;;;;;;24.37;53.37;101586.84;6160537;23;20009;-84
2022/10/28 11:11:58;;;;;;;15.18;4.28;;;;;;;24.62;52.77;101585.03;6186413;23;20011;-83
2022/10/28 11:14:28;;;;;;;14.13;4.30;;;;;;;24.81;51.15;101595.19;6159729;23;20411;-83
2022/10/28 11:16:54;;;;;;;15.82;4.70;;;;;;;24.86;50.83;101585.97;6187457;23;20051;-83
2022/10/28 11:19:26;;;;;;;17.77;4.80;;;;;;;24.77;51.23;101574.63;6185112;23;20005;-83
2022/10/28 11:22:15;;;;;;;18.65;4.78;;;;;;;24.52;51.82;101574.63;6185942;23;20000;-83
2022/10/28 11:25:04;;;;;;;20.00;4.60;;;;;;;24.17;52.00;101566.78;6186614;23;20048;-84
2022/10/28 11:27:42;;;;;;;18.88;4.68;;;;;;;24.04;52.11;101548.34;6186283;23;20420;-83
2022/10/28 11:30:20;;;;;;;19.85;5.03;;;;;;;24.01;53.12;101548.47;6184440;23;20087;-83